Rapelje, Montana
Current Conditions -  °F | °C
As of 8:53 AM on Sunday 25 Jan 2015 (Local Time) from KBIL Reporting Station
Broken Clouds Broken Clouds  
Wind Chill: 32°   Ceiling: 20000
Heat Index: 41°   Visibility: 10mi
Dew Point: 29°   Wind: 21mph
Humidity: 62%   Direction: 240°WSW
Pressure: 30.03"   Gusts: NA
Location:  45.97°N, 109.26°W
Report Text: KBIL 251553Z 24018KT 10SM FEW150 BKN200 05/M02 A3003 RMK AO2 SLP177 T00501017
Loading
Personal Weather Stations






























Interactive Weather Map New forecast layout! Learn more

10-Day Weather Forecast

Advertisements
Track Severe Weather on mobile